sensor_id;sensor_type;location;lat;lon;timestamp;P1;durP1;ratioP1;P2;durP2;ratioP2
24567;SDS011;12731;52.182;8.716;2023-06-10T00:00:41;7.60;;;6.30;;
24567;SDS011;12731;52.182;8.716;2023-06-10T00:03:08;8.70;;;6.50;;
24567;SDS011;12731;52.182;8.716;2023-06-10T00:05:35;8.20;;;6.30;;
24567;SDS011;12731;52.182;8.716;2023-06-10T00:08:05;9.60;;;6.32;;
24567;SDS011;12731;52.182;8.716;2023-06-10T00:10:37;8.45;;;6.53;;
24567;SDS011;12731;52.182;8.716;2023-06-10T00:13:04;8.75;;;6.60;;
24567;SDS011;12731;52.182;8.716;2023-06-10T00:15:31;8.10;;;5.70;;
24567;SDS011;12731;52.182;8.716;2023-06-10T00:17:57;7.35;;;5.97;;
24567;SDS011;12731;52.182;8.716;2023-06-10T00:20:24;9.13;;;6.28;;
24567;SDS011;12731;52.182;8.716;2023-06-10T00:22:51;8.35;;;6.35;;
24567;SDS011;12731;52.182;8.716;2023-06-10T00:25:18;8.50;;;6.35;;
24567;SDS011;12731;52.182;8.716;2023-06-10T00:27:45;8.90;;;6.53;;
24567;SDS011;12731;52.182;8.716;2023-06-10T00:30:11;8.30;;;6.57;;
24567;SDS011;12731;52.182;8.716;2023-06-10T00:32:38;8.88;;;6.40;;
24567;SDS011;12731;52.182;8.716;2023-06-10T00:35:05;10.15;;;6.63;;
24567;SDS011;12731;52.182;8.716;2023-06-10T00:37:33;7.30;;;6.10;;
24567;SDS011;12731;52.182;8.716;2023-06-10T00:40:02;9.32;;;6.15;;
24567;SDS011;12731;52.182;8.716;2023-06-10T00:42:29;8.82;;;6.72;;
24567;SDS011;12731;52.182;8.716;2023-06-10T00:44:55;7.10;;;6.25;;
24567;SDS011;12731;52.182;8.716;2023-06-10T00:47:22;10.15;;;6.63;;
24567;SDS011;12731;52.182;8.716;2023-06-10T00:49:49;7.57;;;5.72;;
24567;SDS011;12731;52.182;8.716;2023-06-10T00:52:16;8.10;;;6.43;;
24567;SDS011;12731;52.182;8.716;2023-06-10T00:54:43;8.57;;;6.75;;
24567;SDS011;12731;52.182;8.716;2023-06-10T00:57:10;9.68;;;6.80;;
24567;SDS011;12731;52.182;8.716;2023-06-10T00:59:39;8.40;;;6.55;;
24567;SDS011;12731;52.182;8.716;2023-06-10T01:02:07;8.38;;;6.47;;
24567;SDS011;12731;52.182;8.716;2023-06-10T01:04:33;6.88;;;6.18;;
24567;SDS011;12731;52.182;8.716;2023-06-10T01:07:04;8.68;;;6.97;;
24567;SDS011;12731;52.182;8.716;2023-06-10T01:09:40;7.78;;;6.35;;
24567;SDS011;12731;52.182;8.716;2023-06-10T01:12:19;8.95;;;6.95;;
24567;SDS011;12731;52.182;8.716;2023-06-10T01:15:05;11.13;;;6.90;;
24567;SDS011;12731;52.182;8.716;2023-06-10T01:17:37;8.05;;;6.45;;
24567;SDS011;12731;52.182;8.716;2023-06-10T01:20:20;6.85;;;5.93;;
24567;SDS011;12731;52.182;8.716;2023-06-10T01:22:46;7.80;;;6.07;;
24567;SDS011;12731;52.182;8.716;2023-06-10T01:25:14;7.45;;;5.97;;
24567;SDS011;12731;52.182;8.716;2023-06-10T01:27:40;6.38;;;5.72;;
24567;SDS011;12731;52.182;8.716;2023-06-10T01:30:11;8.43;;;5.80;;
24567;SDS011;12731;52.182;8.716;2023-06-10T01:32:45;6.63;;;5.95;;
24567;SDS011;12731;52.182;8.716;2023-06-10T01:35:15;8.30;;;5.95;;
24567;SDS011;12731;52.182;8.716;2023-06-10T01:37:41;10.25;;;6.63;;
24567;SDS011;12731;52.182;8.716;2023-06-10T01:40:09;6.43;;;5.82;;
24567;SDS011;12731;52.182;8.716;2023-06-10T01:42:37;8.38;;;6.03;;
24567;SDS011;12731;52.182;8.716;2023-06-10T01:45:03;7.55;;;5.80;;
24567;SDS011;12731;52.182;8.716;2023-06-10T01:47:30;7.78;;;5.82;;
24567;SDS011;12731;52.182;8.716;2023-06-10T01:49:57;7.45;;;5.90;;
24567;SDS011;12731;52.182;8.716;2023-06-10T01:52:23;9.80;;;6.35;;
24567;SDS011;12731;52.182;8.716;2023-06-10T01:54:50;9.63;;;5.82;;
24567;SDS011;12731;52.182;8.716;2023-06-10T01:57:17;8.77;;;6.18;;
24567;SDS011;12731;52.182;8.716;2023-06-10T01:59:44;8.20;;;5.78;;
24567;SDS011;12731;52.182;8.716;2023-06-10T02:02:12;9.05;;;5.57;;
24567;SDS011;12731;52.182;8.716;2023-06-10T02:04:38;7.47;;;5.63;;
24567;SDS011;12731;52.182;8.716;2023-06-10T02:07:05;7.22;;;5.88;;
24567;SDS011;12731;52.182;8.716;2023-06-10T02:09:32;8.05;;;6.07;;
24567;SDS011;12731;52.182;8.716;2023-06-10T02:12:04;8.27;;;5.80;;
24567;SDS011;12731;52.182;8.716;2023-06-10T02:14:32;8.50;;;5.70;;
24567;SDS011;12731;52.182;8.716;2023-06-10T02:16:59;8.65;;;5.53;;
24567;SDS011;12731;52.182;8.716;2023-06-10T02:19:26;7.22;;;5.88;;
24567;SDS011;12731;52.182;8.716;2023-06-10T02:21:53;8.70;;;5.60;;
24567;SDS011;12731;52.182;8.716;2023-06-10T02:24:20;8.90;;;5.53;;
24567;SDS011;12731;52.182;8.716;2023-06-10T02:26:47;7.88;;;5.75;;
24567;SDS011;12731;52.182;8.716;2023-06-10T02:29:14;6.03;;;5.13;;
24567;SDS011;12731;52.182;8.716;2023-06-10T02:31:40;6.93;;;5.57;;
24567;SDS011;12731;52.182;8.716;2023-06-10T02:34:07;9.82;;;5.72;;
24567;SDS011;12731;52.182;8.716;2023-06-10T02:36:33;7.43;;;5.32;;
24567;SDS011;12731;52.182;8.716;2023-06-10T02:39:02;7.93;;;5.93;;
24567;SDS011;12731;52.182;8.716;2023-06-10T02:41:29;6.60;;;5.28;;
24567;SDS011;12731;52.182;8.716;2023-06-10T02:43:56;8.32;;;5.53;;
24567;SDS011;12731;52.182;8.716;2023-06-10T02:46:22;8.82;;;6.25;;
24567;SDS011;12731;52.182;8.716;2023-06-10T02:48:49;7.22;;;5.65;;
24567;SDS011;12731;52.182;8.716;2023-06-10T02:51:17;7.53;;;5.60;;
24567;SDS011;12731;52.182;8.716;2023-06-10T02:53:44;7.68;;;5.72;;
24567;SDS011;12731;52.182;8.716;2023-06-10T02:56:11;7.63;;;5.55;;
24567;SDS011;12731;52.182;8.716;2023-06-10T02:58:38;6.55;;;5.47;;
24567;SDS011;12731;52.182;8.716;2023-06-10T03:01:05;7.35;;;5.50;;
24567;SDS011;12731;52.182;8.716;2023-06-10T03:03:31;6.60;;;5.85;;
24567;SDS011;12731;52.182;8.716;2023-06-10T03:05:59;10.20;;;5.80;;
24567;SDS011;12731;52.182;8.716;2023-06-10T03:08:26;6.65;;;5.90;;
24567;SDS011;12731;52.182;8.716;2023-06-10T03:10:53;7.75;;;5.82;;
24567;SDS011;12731;52.182;8.716;2023-06-10T03:13:19;8.38;;;5.95;;
24567;SDS011;12731;52.182;8.716;2023-06-10T03:15:45;7.80;;;5.30;;
24567;SDS011;12731;52.182;8.716;2023-06-10T03:18:12;7.10;;;5.68;;
24567;SDS011;12731;52.182;8.716;2023-06-10T03:20:39;6.45;;;5.20;;
24567;SDS011;12731;52.182;8.716;2023-06-10T03:23:05;8.63;;;5.03;;
24567;SDS011;12731;52.182;8.716;2023-06-10T03:25:32;6.18;;;4.80;;
24567;SDS011;12731;52.182;8.716;2023-06-10T03:27:59;7.00;;;4.88;;
24567;SDS011;12731;52.182;8.716;2023-06-10T03:30:26;6.28;;;5.00;;
24567;SDS011;12731;52.182;8.716;2023-06-10T03:32:53;6.45;;;4.88;;
24567;SDS011;12731;52.182;8.716;2023-06-10T03:35:20;7.93;;;5.40;;
24567;SDS011;12731;52.182;8.716;2023-06-10T03:37:46;7.03;;;4.40;;
24567;SDS011;12731;52.182;8.716;2023-06-10T03:40:13;9.15;;;4.82;;
24567;SDS011;12731;52.182;8.716;2023-06-10T03:42:40;8.65;;;4.68;;
24567;SDS011;12731;52.182;8.716;2023-06-10T03:45:06;4.50;;;4.10;;
24567;SDS011;12731;52.182;8.716;2023-06-10T03:47:34;6.03;;;4.43;;
24567;SDS011;12731;52.182;8.716;2023-06-10T03:50:03;7.47;;;4.30;;
24567;SDS011;12731;52.182;8.716;2023-06-10T03:52:30;7.30;;;4.50;;
24567;SDS011;12731;52.182;8.716;2023-06-10T03:54:56;7.57;;;4.53;;
24567;SDS011;12731;52.182;8.716;2023-06-10T03:57:23;6.78;;;4.95;;
24567;SDS011;12731;52.182;8.716;2023-06-10T03:59:49;7.28;;;4.60;;
24567;SDS011;12731;52.182;8.716;2023-06-10T04:02:16;9.07;;;4.68;;
24567;SDS011;12731;52.182;8.716;2023-06-10T04:04:43;5.88;;;4.07;;
24567;SDS011;12731;52.182;8.716;2023-06-10T04:07:09;6.30;;;4.47;;
24567;SDS011;12731;52.182;8.716;2023-06-10T04:09:36;6.82;;;4.63;;
24567;SDS011;12731;52.182;8.716;2023-06-10T04:12:03;7.70;;;4.70;;
24567;SDS011;12731;52.182;8.716;2023-06-10T04:14:32;8.45;;;4.50;;
24567;SDS011;12731;52.182;8.716;2023-06-10T04:16:58;7.50;;;5.03;;
24567;SDS011;12731;52.182;8.716;2023-06-10T04:19:25;8.15;;;5.25;;
24567;SDS011;12731;52.182;8.716;2023-06-10T04:21:52;8.20;;;5.30;;
24567;SDS011;12731;52.182;8.716;2023-06-10T04:24:18;7.60;;;4.68;;
24567;SDS011;12731;52.182;8.716;2023-06-10T04:26:45;6.07;;;4.70;;
24567;SDS011;12731;52.182;8.716;2023-06-10T04:29:11;7.10;;;5.07;;
24567;SDS011;12731;52.182;8.716;2023-06-10T04:31:38;7.93;;;4.47;;
24567;SDS011;12731;52.182;8.716;2023-06-10T04:34:04;9.35;;;4.80;;
24567;SDS011;12731;52.182;8.716;2023-06-10T04:36:31;8.43;;;4.70;;
24567;SDS011;12731;52.182;8.716;2023-06-10T04:38:57;7.53;;;4.72;;
24567;SDS011;12731;52.182;8.716;2023-06-10T04:41:24;6.55;;;4.35;;
24567;SDS011;12731;52.182;8.716;2023-06-10T04:43:51;9.02;;;5.38;;
24567;SDS011;12731;52.182;8.716;2023-06-10T04:46:18;8.95;;;4.95;;
24567;SDS011;12731;52.182;8.716;2023-06-10T04:48:45;8.95;;;4.00;;
24567;SDS011;12731;52.182;8.716;2023-06-10T04:51:13;5.90;;;3.80;;
24567;SDS011;12731;52.182;8.716;2023-06-10T04:53:40;6.75;;;4.65;;
24567;SDS011;12731;52.182;8.716;2023-06-10T04:56:07;6.85;;;4.43;;
24567;SDS011;12731;52.182;8.716;2023-06-10T04:58:33;7.60;;;4.65;;
24567;SDS011;12731;52.182;8.716;2023-06-10T05:01:00;8.82;;;4.70;;
24567;SDS011;12731;52.182;8.716;2023-06-10T05:03:28;8.65;;;4.30;;
24567;SDS011;12731;52.182;8.716;2023-06-10T05:05:54;7.60;;;4.22;;
24567;SDS011;12731;52.182;8.716;2023-06-10T05:08:21;8.75;;;4.70;;
24567;SDS011;12731;52.182;8.716;2023-06-10T05:10:47;6.47;;;4.15;;
24567;SDS011;12731;52.182;8.716;2023-06-10T05:13:14;7.47;;;4.47;;
24567;SDS011;12731;52.182;8.716;2023-06-10T05:15:40;7.18;;;4.30;;
24567;SDS011;12731;52.182;8.716;2023-06-10T05:18:10;9.10;;;4.28;;
24567;SDS011;12731;52.182;8.716;2023-06-10T05:20:38;9.93;;;4.25;;
24567;SDS011;12731;52.182;8.716;2023-06-10T05:23:05;8.38;;;4.70;;
24567;SDS011;12731;52.182;8.716;2023-06-10T05:25:32;9.00;;;5.10;;
24567;SDS011;12731;52.182;8.716;2023-06-10T05:27:59;7.43;;;4.78;;
24567;SDS011;12731;52.182;8.716;2023-06-10T05:30:25;8.57;;;4.78;;
24567;SDS011;12731;52.182;8.716;2023-06-10T05:32:52;7.95;;;4.47;;
24567;SDS011;12731;52.182;8.716;2023-06-10T05:35:19;4.97;;;4.22;;
24567;SDS011;12731;52.182;8.716;2023-06-10T05:37:45;6.95;;;4.70;;
24567;SDS011;12731;52.182;8.716;2023-06-10T05:40:12;6.03;;;4.32;;
24567;SDS011;12731;52.182;8.716;2023-06-10T05:42:38;7.28;;;4.18;;
24567;SDS011;12731;52.182;8.716;2023-06-10T05:45:05;8.70;;;4.78;;
24567;SDS011;12731;52.182;8.716;2023-06-10T05:47:33;6.50;;;4.20;;
24567;SDS011;12731;52.182;8.716;2023-06-10T05:50:00;8.60;;;4.75;;
24567;SDS011;12731;52.182;8.716;2023-06-10T05:52:26;12.68;;;5.05;;
24567;SDS011;12731;52.182;8.716;2023-06-10T05:54:53;7.13;;;4.70;;
24567;SDS011;12731;52.182;8.716;2023-06-10T05:57:20;6.13;;;4.47;;
24567;SDS011;12731;52.182;8.716;2023-06-10T05:59:47;6.55;;;4.10;;
24567;SDS011;12731;52.182;8.716;2023-06-10T06:02:13;10.00;;;4.35;;
24567;SDS011;12731;52.182;8.716;2023-06-10T06:04:40;6.60;;;4.32;;
24567;SDS011;12731;52.182;8.716;2023-06-10T06:07:06;8.60;;;4.40;;
24567;SDS011;12731;52.182;8.716;2023-06-10T06:09:33;6.25;;;4.22;;
24567;SDS011;12731;52.182;8.716;2023-06-10T06:11:59;7.85;;;3.92;;
24567;SDS011;12731;52.182;8.716;2023-06-10T06:14:26;6.18;;;4.35;;
24567;SDS011;12731;52.182;8.716;2023-06-10T06:16:52;5.68;;;3.92;;
24567;SDS011;12731;52.182;8.716;2023-06-10T06:19:18;6.28;;;4.30;;
24567;SDS011;12731;52.182;8.716;2023-06-10T06:21:45;8.02;;;4.65;;
24567;SDS011;12731;52.182;8.716;2023-06-10T06:24:11;7.05;;;3.88;;
24567;SDS011;12731;52.182;8.716;2023-06-10T06:26:38;6.95;;;4.03;;
24567;SDS011;12731;52.182;8.716;2023-06-10T06:29:04;7.68;;;4.47;;
24567;SDS011;12731;52.182;8.716;2023-06-10T06:31:31;5.43;;;3.60;;
24567;SDS011;12731;52.182;8.716;2023-06-10T06:33:58;8.25;;;4.05;;
24567;SDS011;12731;52.182;8.716;2023-06-10T06:36:26;7.03;;;3.95;;
24567;SDS011;12731;52.182;8.716;2023-06-10T06:38:52;6.15;;;3.75;;
24567;SDS011;12731;52.182;8.716;2023-06-10T06:41:19;7.13;;;4.03;;
24567;SDS011;12731;52.182;8.716;2023-06-10T06:43:45;6.97;;;3.60;;
24567;SDS011;12731;52.182;8.716;2023-06-10T06:46:12;7.95;;;3.92;;
24567;SDS011;12731;52.182;8.716;2023-06-10T06:48:42;7.32;;;3.75;;
24567;SDS011;12731;52.182;8.716;2023-06-10T06:51:09;7.30;;;3.67;;
24567;SDS011;12731;52.182;8.716;2023-06-10T06:53:35;7.43;;;3.83;;
24567;SDS011;12731;52.182;8.716;2023-06-10T06:56:03;8.02;;;4.00;;
24567;SDS011;12731;52.182;8.716;2023-06-10T06:58:29;8.05;;;3.90;;
24567;SDS011;12731;52.182;8.716;2023-06-10T07:00:56;6.38;;;3.75;;
24567;SDS011;12731;52.182;8.716;2023-06-10T07:03:22;5.60;;;3.45;;
24567;SDS011;12731;52.182;8.716;2023-06-10T07:05:48;6.88;;;4.15;;
24567;SDS011;12731;52.182;8.716;2023-06-10T07:08:15;5.80;;;3.80;;
24567;SDS011;12731;52.182;8.716;2023-06-10T07:10:42;6.85;;;4.10;;
24567;SDS011;12731;52.182;8.716;2023-06-10T07:13:08;7.22;;;3.75;;
24567;SDS011;12731;52.182;8.716;2023-06-10T07:15:35;6.88;;;3.97;;
24567;SDS011;12731;52.182;8.716;2023-06-10T07:18:01;7.25;;;3.70;;
24567;SDS011;12731;52.182;8.716;2023-06-10T07:20:28;7.03;;;3.92;;
24567;SDS011;12731;52.182;8.716;2023-06-10T07:22:54;7.63;;;3.83;;
24567;SDS011;12731;52.182;8.716;2023-06-10T07:25:21;7.15;;;3.85;;
24567;SDS011;12731;52.182;8.716;2023-06-10T07:27:47;10.40;;;3.92;;
24567;SDS011;12731;52.182;8.716;2023-06-10T07:30:14;6.18;;;3.70;;
24567;SDS011;12731;52.182;8.716;2023-06-10T07:32:40;7.05;;;3.72;;
24567;SDS011;12731;52.182;8.716;2023-06-10T07:35:08;7.97;;;4.05;;
24567;SDS011;12731;52.182;8.716;2023-06-10T07:37:35;5.80;;;3.63;;
24567;SDS011;12731;52.182;8.716;2023-06-10T07:40:02;5.95;;;3.78;;
24567;SDS011;12731;52.182;8.716;2023-06-10T07:42:29;9.20;;;4.18;;
24567;SDS011;12731;52.182;8.716;2023-06-10T07:44:55;6.22;;;3.72;;
24567;SDS011;12731;52.182;8.716;2023-06-10T07:47:22;7.55;;;3.80;;
24567;SDS011;12731;52.182;8.716;2023-06-10T07:49:48;5.90;;;3.72;;
24567;SDS011;12731;52.182;8.716;2023-06-10T07:52:14;7.88;;;3.67;;
24567;SDS011;12731;52.182;8.716;2023-06-10T07:54:41;5.75;;;3.80;;
24567;SDS011;12731;52.182;8.716;2023-06-10T07:57:07;7.70;;;4.00;;
24567;SDS011;12731;52.182;8.716;2023-06-10T07:59:34;7.93;;;3.70;;
24567;SDS011;12731;52.182;8.716;2023-06-10T08:02:01;6.47;;;3.70;;
24567;SDS011;12731;52.182;8.716;2023-06-10T08:04:27;8.25;;;3.83;;
24567;SDS011;12731;52.182;8.716;2023-06-10T08:06:54;5.82;;;3.40;;
24567;SDS011;12731;52.182;8.716;2023-06-10T08:09:20;7.30;;;4.10;;
24567;SDS011;12731;52.182;8.716;2023-06-10T08:11:49;7.95;;;4.13;;
24567;SDS011;12731;52.182;8.716;2023-06-10T08:14:15;4.50;;;3.55;;
24567;SDS011;12731;52.182;8.716;2023-06-10T08:16:42;8.52;;;3.63;;
24567;SDS011;12731;52.182;8.716;2023-06-10T08:19:09;5.50;;;3.95;;
24567;SDS011;12731;52.182;8.716;2023-06-10T08:21:36;6.35;;;3.88;;
24567;SDS011;12731;52.182;8.716;2023-06-10T08:24:06;5.32;;;3.55;;
24567;SDS011;12731;52.182;8.716;2023-06-10T08:26:33;6.05;;;4.25;;
24567;SDS011;12731;52.182;8.716;2023-06-10T08:29:00;6.75;;;3.88;;
24567;SDS011;12731;52.182;8.716;2023-06-10T08:31:26;8.50;;;4.93;;
24567;SDS011;12731;52.182;8.716;2023-06-10T08:33:53;7.47;;;4.55;;
24567;SDS011;12731;52.182;8.716;2023-06-10T08:36:19;6.38;;;4.20;;
24567;SDS011;12731;52.182;8.716;2023-06-10T08:38:46;6.15;;;4.50;;
24567;SDS011;12731;52.182;8.716;2023-06-10T08:41:12;8.23;;;4.50;;
24567;SDS011;12731;52.182;8.716;2023-06-10T08:43:44;6.68;;;3.90;;
24567;SDS011;12731;52.182;8.716;2023-06-10T08:46:12;8.55;;;4.25;;
24567;SDS011;12731;52.182;8.716;2023-06-10T08:48:43;5.50;;;3.90;;
24567;SDS011;12731;52.182;8.716;2023-06-10T08:51:11;6.55;;;4.40;;
24567;SDS011;12731;52.182;8.716;2023-06-10T08:53:38;6.13;;;4.30;;
24567;SDS011;12731;52.182;8.716;2023-06-10T08:56:11;6.50;;;4.32;;
24567;SDS011;12731;52.182;8.716;2023-06-10T08:58:38;5.43;;;4.00;;
24567;SDS011;12731;52.182;8.716;2023-06-10T09:01:08;7.30;;;4.60;;
24567;SDS011;12731;52.182;8.716;2023-06-10T09:03:36;6.53;;;4.78;;
24567;SDS011;12731;52.182;8.716;2023-06-10T09:06:06;8.38;;;4.47;;
24567;SDS011;12731;52.182;8.716;2023-06-10T09:08:33;7.35;;;4.45;;
24567;SDS011;12731;52.182;8.716;2023-06-10T09:11:01;6.93;;;4.28;;
24567;SDS011;12731;52.182;8.716;2023-06-10T09:13:27;6.72;;;4.10;;
24567;SDS011;12731;52.182;8.716;2023-06-10T09:15:55;6.90;;;4.82;;
24567;SDS011;12731;52.182;8.716;2023-06-10T09:18:23;7.95;;;4.28;;
24567;SDS011;12731;52.182;8.716;2023-06-10T09:20:49;7.18;;;4.10;;
24567;SDS011;12731;52.182;8.716;2023-06-10T09:23:16;5.50;;;3.92;;
24567;SDS011;12731;52.182;8.716;2023-06-10T09:25:43;6.63;;;3.72;;
24567;SDS011;12731;52.182;8.716;2023-06-10T09:28:13;7.95;;;3.88;;
24567;SDS011;12731;52.182;8.716;2023-06-10T09:30:41;5.05;;;3.28;;
24567;SDS011;12731;52.182;8.716;2023-06-10T09:33:11;5.63;;;3.47;;
24567;SDS011;12731;52.182;8.716;2023-06-10T09:35:44;6.10;;;3.65;;
24567;SDS011;12731;52.182;8.716;2023-06-10T09:38:21;5.13;;;3.75;;
24567;SDS011;12731;52.182;8.716;2023-06-10T09:40:49;5.45;;;3.80;;
24567;SDS011;12731;52.182;8.716;2023-06-10T09:43:18;6.07;;;3.65;;
24567;SDS011;12731;52.182;8.716;2023-06-10T09:45:51;6.25;;;3.72;;
24567;SDS011;12731;52.182;8.716;2023-06-10T09:48:21;5.43;;;3.88;;
24567;SDS011;12731;52.182;8.716;2023-06-10T09:50:48;5.60;;;3.65;;
24567;SDS011;12731;52.182;8.716;2023-06-10T09:53:16;7.97;;;4.35;;
24567;SDS011;12731;52.182;8.716;2023-06-10T09:55:43;6.65;;;4.00;;
24567;SDS011;12731;52.182;8.716;2023-06-10T09:58:10;5.25;;;3.78;;
24567;SDS011;12731;52.182;8.716;2023-06-10T10:00:36;6.47;;;4.10;;
24567;SDS011;12731;52.182;8.716;2023-06-10T10:03:03;5.80;;;3.50;;
24567;SDS011;12731;52.182;8.716;2023-06-10T10:05:30;5.70;;;3.67;;
24567;SDS011;12731;52.182;8.716;2023-06-10T10:07:57;6.60;;;3.78;;
24567;SDS011;12731;52.182;8.716;2023-06-10T10:10:23;5.70;;;3.42;;
24567;SDS011;12731;52.182;8.716;2023-06-10T10:12:56;6.82;;;3.65;;
24567;SDS011;12731;52.182;8.716;2023-06-10T10:15:23;6.57;;;3.97;;
24567;SDS011;12731;52.182;8.716;2023-06-10T10:20:33;4.65;;;3.85;;
24567;SDS011;12731;52.182;8.716;2023-06-10T10:23:02;5.70;;;3.42;;
24567;SDS011;12731;52.182;8.716;2023-06-10T10:25:32;6.47;;;3.83;;
24567;SDS011;12731;52.182;8.716;2023-06-10T10:28:11;6.57;;;4.25;;
24567;SDS011;12731;52.182;8.716;2023-06-10T10:30:58;5.03;;;3.95;;
24567;SDS011;12731;52.182;8.716;2023-06-10T10:33:29;5.20;;;3.70;;
24567;SDS011;12731;52.182;8.716;2023-06-10T10:35:59;5.90;;;3.70;;
24567;SDS011;12731;52.182;8.716;2023-06-10T10:38:27;8.50;;;4.05;;
24567;SDS011;12731;52.182;8.716;2023-06-10T10:40:54;6.50;;;3.63;;
24567;SDS011;12731;52.182;8.716;2023-06-10T10:43:22;7.15;;;4.07;;
24567;SDS011;12731;52.182;8.716;2023-06-10T10:45:58;7.32;;;3.90;;
24567;SDS011;12731;52.182;8.716;2023-06-10T10:48:26;7.10;;;3.80;;
24567;SDS011;12731;52.182;8.716;2023-06-10T10:50:56;4.82;;;3.78;;
24567;SDS011;12731;52.182;8.716;2023-06-10T10:53:23;5.53;;;3.75;;
24567;SDS011;12731;52.182;8.716;2023-06-10T10:55:58;8.02;;;4.10;;
24567;SDS011;12731;52.182;8.716;2023-06-10T10:58:37;4.88;;;3.95;;
24567;SDS011;12731;52.182;8.716;2023-06-10T11:01:13;6.97;;;3.92;;
24567;SDS011;12731;52.182;8.716;2023-06-10T11:03:44;4.80;;;3.63;;
24567;SDS011;12731;52.182;8.716;2023-06-10T11:06:13;5.35;;;3.75;;
24567;SDS011;12731;52.182;8.716;2023-06-10T11:11:42;4.85;;;3.95;;
24567;SDS011;12731;52.182;8.716;2023-06-10T11:16:28;4.63;;;3.50;;
24567;SDS011;12731;52.182;8.716;2023-06-10T11:18:55;4.10;;;3.65;;
24567;SDS011;12731;52.182;8.716;2023-06-10T11:21:25;5.57;;;3.60;;
24567;SDS011;12731;52.182;8.716;2023-06-10T11:23:57;5.20;;;3.65;;
24567;SDS011;12731;52.182;8.716;2023-06-10T11:31:24;6.50;;;3.50;;
24567;SDS011;12731;52.182;8.716;2023-06-10T11:33:59;5.93;;;3.40;;
24567;SDS011;12731;52.182;8.716;2023-06-10T11:36:30;4.97;;;3.10;;
24567;SDS011;12731;52.182;8.716;2023-06-10T11:39:04;7.00;;;3.60;;
24567;SDS011;12731;52.182;8.716;2023-06-10T11:41:32;4.18;;;3.20;;
24567;SDS011;12731;52.182;8.716;2023-06-10T11:44:03;5.28;;;3.38;;
24567;SDS011;12731;52.182;8.716;2023-06-10T11:46:30;5.45;;;3.45;;
24567;SDS011;12731;52.182;8.716;2023-06-10T11:48:58;5.43;;;3.05;;
24567;SDS011;12731;52.182;8.716;2023-06-10T11:51:25;5.72;;;3.38;;
24567;SDS011;12731;52.182;8.716;2023-06-10T11:53:52;4.80;;;2.97;;
24567;SDS011;12731;52.182;8.716;2023-06-10T11:56:22;3.65;;;2.78;;
24567;SDS011;12731;52.182;8.716;2023-06-10T11:58:52;4.82;;;2.70;;
24567;SDS011;12731;52.182;8.716;2023-06-10T12:01:21;4.00;;;3.30;;
24567;SDS011;12731;52.182;8.716;2023-06-10T12:04:08;4.78;;;3.10;;
24567;SDS011;12731;52.182;8.716;2023-06-10T12:06:43;5.30;;;3.50;;
24567;SDS011;12731;52.182;8.716;2023-06-10T12:09:18;3.95;;;3.10;;
24567;SDS011;12731;52.182;8.716;2023-06-10T12:20:06;3.80;;;3.20;;
24567;SDS011;12731;52.182;8.716;2023-06-10T12:22:38;4.25;;;3.20;;
24567;SDS011;12731;52.182;8.716;2023-06-10T12:25:08;6.38;;;3.40;;
24567;SDS011;12731;52.182;8.716;2023-06-10T12:27:37;4.18;;;3.22;;
24567;SDS011;12731;52.182;8.716;2023-06-10T12:30:05;4.22;;;3.38;;
24567;SDS011;12731;52.182;8.716;2023-06-10T12:32:36;4.90;;;3.60;;
24567;SDS011;12731;52.182;8.716;2023-06-10T12:35:04;5.57;;;3.50;;
24567;SDS011;12731;52.182;8.716;2023-06-10T12:37:32;4.65;;;3.20;;
24567;SDS011;12731;52.182;8.716;2023-06-10T12:40:00;5.88;;;3.22;;
24567;SDS011;12731;52.182;8.716;2023-06-10T12:42:29;5.82;;;3.38;;
24567;SDS011;12731;52.182;8.716;2023-06-10T12:44:57;5.00;;;3.10;;
24567;SDS011;12731;52.182;8.716;2023-06-10T12:47:30;4.30;;;3.40;;
24567;SDS011;12731;52.182;8.716;2023-06-10T12:50:01;5.45;;;3.55;;
24567;SDS011;12731;52.182;8.716;2023-06-10T12:52:29;4.55;;;3.47;;
24567;SDS011;12731;52.182;8.716;2023-06-10T12:54:55;5.72;;;4.10;;
24567;SDS011;12731;52.182;8.716;2023-06-10T12:57:22;6.30;;;3.78;;
24567;SDS011;12731;52.182;8.716;2023-06-10T12:59:48;5.32;;;3.33;;
24567;SDS011;12731;52.182;8.716;2023-06-10T13:02:23;6.20;;;3.28;;
24567;SDS011;12731;52.182;8.716;2023-06-10T13:04:52;4.68;;;3.80;;
24567;SDS011;12731;52.182;8.716;2023-06-10T13:07:18;5.10;;;3.30;;
24567;SDS011;12731;52.182;8.716;2023-06-10T13:09:45;4.75;;;3.53;;
24567;SDS011;12731;52.182;8.716;2023-06-10T13:12:15;4.88;;;3.67;;
24567;SDS011;12731;52.182;8.716;2023-06-10T13:14:47;4.53;;;3.30;;
24567;SDS011;12731;52.182;8.716;2023-06-10T13:17:14;4.07;;;3.33;;
24567;SDS011;12731;52.182;8.716;2023-06-10T13:19:41;6.43;;;3.80;;
24567;SDS011;12731;52.182;8.716;2023-06-10T13:22:08;4.93;;;3.60;;
24567;SDS011;12731;52.182;8.716;2023-06-10T13:24:35;4.82;;;3.53;;
24567;SDS011;12731;52.182;8.716;2023-06-10T13:27:01;4.40;;;3.67;;
24567;SDS011;12731;52.182;8.716;2023-06-10T13:29:28;5.85;;;3.92;;
24567;SDS011;12731;52.182;8.716;2023-06-10T13:31:54;4.85;;;3.58;;
24567;SDS011;12731;52.182;8.716;2023-06-10T13:34:21;4.22;;;3.47;;
24567;SDS011;12731;52.182;8.716;2023-06-10T13:36:47;5.82;;;3.50;;
24567;SDS011;12731;52.182;8.716;2023-06-10T13:39:14;4.38;;;3.58;;
24567;SDS011;12731;52.182;8.716;2023-06-10T13:41:40;5.65;;;3.60;;
24567;SDS011;12731;52.182;8.716;2023-06-10T13:44:07;7.90;;;3.38;;
24567;SDS011;12731;52.182;8.716;2023-06-10T13:46:34;4.55;;;3.47;;
24567;SDS011;12731;52.182;8.716;2023-06-10T13:49:00;6.00;;;3.60;;
24567;SDS011;12731;52.182;8.716;2023-06-10T13:51:27;6.85;;;4.00;;
24567;SDS011;12731;52.182;8.716;2023-06-10T13:53:53;6.25;;;3.65;;
24567;SDS011;12731;52.182;8.716;2023-06-10T13:56:20;4.20;;;3.60;;
24567;SDS011;12731;52.182;8.716;2023-06-10T13:58:46;5.32;;;3.67;;
24567;SDS011;12731;52.182;8.716;2023-06-10T14:01:13;4.95;;;3.63;;
24567;SDS011;12731;52.182;8.716;2023-06-10T14:03:39;5.22;;;3.80;;
24567;SDS011;12731;52.182;8.716;2023-06-10T14:06:06;5.60;;;3.90;;
24567;SDS011;12731;52.182;8.716;2023-06-10T14:08:33;4.63;;;3.70;;
24567;SDS011;12731;52.182;8.716;2023-06-10T14:11:00;5.22;;;3.75;;
24567;SDS011;12731;52.182;8.716;2023-06-10T14:13:26;5.28;;;3.80;;
24567;SDS011;12731;52.182;8.716;2023-06-10T14:15:52;7.63;;;4.25;;
24567;SDS011;12731;52.182;8.716;2023-06-10T14:18:19;5.25;;;4.00;;
24567;SDS011;12731;52.182;8.716;2023-06-10T14:20:45;5.03;;;3.92;;
24567;SDS011;12731;52.182;8.716;2023-06-10T14:23:12;5.00;;;3.72;;
24567;SDS011;12731;52.182;8.716;2023-06-10T14:25:38;6.40;;;3.80;;
24567;SDS011;12731;52.182;8.716;2023-06-10T14:28:05;5.40;;;4.20;;
24567;SDS011;12731;52.182;8.716;2023-06-10T14:30:31;6.00;;;4.15;;
24567;SDS011;12731;52.182;8.716;2023-06-10T14:32:58;6.40;;;4.50;;
24567;SDS011;12731;52.182;8.716;2023-06-10T14:35:24;5.47;;;4.32;;
24567;SDS011;12731;52.182;8.716;2023-06-10T14:37:51;5.88;;;3.95;;
24567;SDS011;12731;52.182;8.716;2023-06-10T14:40:17;7.30;;;4.35;;
24567;SDS011;12731;52.182;8.716;2023-06-10T14:42:44;6.70;;;4.30;;
24567;SDS011;12731;52.182;8.716;2023-06-10T14:45:10;5.93;;;4.35;;
24567;SDS011;12731;52.182;8.716;2023-06-10T14:47:37;5.80;;;4.00;;
24567;SDS011;12731;52.182;8.716;2023-06-10T14:50:04;6.88;;;4.00;;
24567;SDS011;12731;52.182;8.716;2023-06-10T14:52:30;5.18;;;4.15;;
24567;SDS011;12731;52.182;8.716;2023-06-10T14:54:57;4.88;;;4.10;;
24567;SDS011;12731;52.182;8.716;2023-06-10T14:57:24;4.30;;;3.90;;
24567;SDS011;12731;52.182;8.716;2023-06-10T14:59:50;7.28;;;4.25;;
24567;SDS011;12731;52.182;8.716;2023-06-10T15:02:17;6.30;;;4.50;;
24567;SDS011;12731;52.182;8.716;2023-06-10T15:04:43;5.72;;;4.38;;
24567;SDS011;12731;52.182;8.716;2023-06-10T15:07:10;6.55;;;4.50;;
24567;SDS011;12731;52.182;8.716;2023-06-10T15:09:36;7.35;;;4.38;;
24567;SDS011;12731;52.182;8.716;2023-06-10T15:12:03;4.65;;;4.15;;